sensor_id;sensor_type;location;lat;lon;timestamp;pressure;altitude;pressure_sealevel;temperature;humidity
76592;BME280;65481;47.600;19.682;2024-02-15T00:04:56;100989.97;;;4.47;100.00
76592;BME280;65481;47.600;19.682;2024-02-15T00:10:10;100985.03;;;4.52;100.00
76592;BME280;65481;47.600;19.682;2024-02-15T00:15:18;100981.63;;;4.52;100.00
76592;BME280;65481;47.600;19.682;2024-02-15T00:20:25;100996.34;;;4.45;100.00
76592;BME280;65481;47.600;19.682;2024-02-15T00:25:26;100991.94;;;4.45;100.00
76592;BME280;65481;47.600;19.682;2024-02-15T00:30:26;100985.72;;;4.46;100.00
76592;BME280;65481;47.600;19.682;2024-02-15T00:35:28;100986.16;;;4.58;100.00
76592;BME280;65481;47.600;19.682;2024-02-15T00:40:31;100984.19;;;4.60;100.00
76592;BME280;65481;47.600;19.682;2024-02-15T00:45:32;100983.38;;;4.60;100.00
76592;BME280;65481;47.600;19.682;2024-02-15T00:50:32;100987.47;;;4.62;100.00
76592;BME280;65481;47.600;19.682;2024-02-15T00:55:33;100993.38;;;4.56;100.00
76592;BME280;65481;47.600;19.682;2024-02-15T01:00:33;100991.75;;;4.55;100.00
76592;BME280;65481;47.600;19.682;2024-02-15T01:05:33;101000.91;;;4.51;100.00
76592;BME280;65481;47.600;19.682;2024-02-15T01:10:34;100996.63;;;4.58;100.00
76592;BME280;65481;47.600;19.682;2024-02-15T01:15:37;100989.63;;;4.50;100.00
76592;BME280;65481;47.600;19.682;2024-02-15T01:20:39;100985.69;;;4.54;100.00
76592;BME280;65481;47.600;19.682;2024-02-15T01:25:39;100981.50;;;4.45;100.00
76592;BME280;65481;47.600;19.682;2024-02-15T01:30:40;100979.84;;;4.44;100.00
76592;BME280;65481;47.600;19.682;2024-02-15T01:35:44;100981.50;;;4.45;100.00
76592;BME280;65481;47.600;19.682;2024-02-15T01:40:46;100976.25;;;4.45;100.00
76592;BME280;65481;47.600;19.682;2024-02-15T01:45:47;100972.00;;;4.44;100.00
76592;BME280;65481;47.600;19.682;2024-02-15T01:50:48;100970.41;;;4.35;100.00
76592;BME280;65481;47.600;19.682;2024-02-15T01:55:48;100979.53;;;4.39;100.00
76592;BME280;65481;47.600;19.682;2024-02-15T02:00:49;100986.72;;;4.37;100.00
76592;BME280;65481;47.600;19.682;2024-02-15T02:05:50;100990.63;;;4.41;100.00
76592;BME280;65481;47.600;19.682;2024-02-15T02:10:52;100995.19;;;4.47;100.00
76592;BME280;65481;47.600;19.682;2024-02-15T02:15:53;100984.38;;;4.50;100.00
76592;BME280;65481;47.600;19.682;2024-02-15T02:20:53;100994.97;;;4.57;100.00
76592;BME280;65481;47.600;19.682;2024-02-15T02:25:55;100994.31;;;4.63;100.00
76592;BME280;65481;47.600;19.682;2024-02-15T02:30:56;100997.41;;;4.67;100.00
76592;BME280;65481;47.600;19.682;2024-02-15T02:35:56;100994.13;;;4.73;100.00
76592;BME280;65481;47.600;19.682;2024-02-15T02:40:57;100992.81;;;4.69;100.00
76592;BME280;65481;47.600;19.682;2024-02-15T02:45:58;100996.13;;;4.63;100.00
76592;BME280;65481;47.600;19.682;2024-02-15T02:50:58;100982.06;;;4.64;100.00
76592;BME280;65481;47.600;19.682;2024-02-15T02:55:59;100995.94;;;4.64;100.00
76592;BME280;65481;47.600;19.682;2024-02-15T03:01:00;100990.13;;;4.54;100.00
76592;BME280;65481;47.600;19.682;2024-02-15T03:06:00;100983.06;;;4.63;100.00
76592;BME280;65481;47.600;19.682;2024-02-15T03:11:01;100979.47;;;4.64;100.00
76592;BME280;65481;47.600;19.682;2024-02-15T03:16:03;100990.25;;;4.61;100.00
76592;BME280;65481;47.600;19.682;2024-02-15T03:21:05;100983.84;;;4.63;100.00
76592;BME280;65481;47.600;19.682;2024-02-15T03:26:07;100993.34;;;4.64;100.00
76592;BME280;65481;47.600;19.682;2024-02-15T03:31:08;100985.53;;;4.56;100.00
76592;BME280;65481;47.600;19.682;2024-02-15T03:36:09;100989.41;;;4.60;100.00
76592;BME280;65481;47.600;19.682;2024-02-15T03:41:12;100986.88;;;4.44;100.00
76592;BME280;65481;47.600;19.682;2024-02-15T03:46:12;100981.31;;;4.47;100.00
76592;BME280;65481;47.600;19.682;2024-02-15T03:51:17;100985.03;;;4.52;100.00
76592;BME280;65481;47.600;19.682;2024-02-15T03:56:23;100992.53;;;4.55;100.00
76592;BME280;65481;47.600;19.682;2024-02-15T04:01:24;100990.91;;;4.54;100.00
76592;BME280;65481;47.600;19.682;2024-02-15T04:06:25;100982.28;;;4.46;100.00
76592;BME280;65481;47.600;19.682;2024-02-15T04:11:28;100985.09;;;4.44;100.00
76592;BME280;65481;47.600;19.682;2024-02-15T04:16:28;100978.22;;;4.43;100.00
76592;BME280;65481;47.600;19.682;2024-02-15T04:21:30;100974.63;;;4.44;100.00
76592;BME280;65481;47.600;19.682;2024-02-15T04:26:31;100974.91;;;4.49;100.00
76592;BME280;65481;47.600;19.682;2024-02-15T04:31:32;100981.31;;;4.47;100.00
76592;BME280;65481;47.600;19.682;2024-02-15T04:36:37;100986.16;;;4.58;100.00
76592;BME280;65481;47.600;19.682;2024-02-15T04:41:37;100976.41;;;4.52;100.00
76592;BME280;65481;47.600;19.682;2024-02-15T04:46:39;100981.28;;;4.55;100.00
76592;BME280;65481;47.600;19.682;2024-02-15T04:51:41;100978.81;;;4.53;100.00
76592;BME280;65481;47.600;19.682;2024-02-15T04:56:42;100984.25;;;4.52;100.00
76592;BME280;65481;47.600;19.682;2024-02-15T05:01:43;100988.16;;;4.48;100.00
76592;BME280;65481;47.600;19.682;2024-02-15T05:06:43;100997.19;;;4.37;100.00
76592;BME280;65481;47.600;19.682;2024-02-15T05:11:45;100987.38;;;4.31;100.00
76592;BME280;65481;47.600;19.682;2024-02-15T05:16:47;100990.03;;;4.22;100.00
76592;BME280;65481;47.600;19.682;2024-02-15T05:21:49;101001.28;;;4.23;100.00
76592;BME280;65481;47.600;19.682;2024-02-15T05:26:50;101008.78;;;4.26;100.00
76592;BME280;65481;47.600;19.682;2024-02-15T05:31:51;100995.25;;;4.22;100.00
76592;BME280;65481;47.600;19.682;2024-02-15T05:36:53;100997.53;;;4.26;100.00
76592;BME280;65481;47.600;19.682;2024-02-15T05:41:54;101014.19;;;4.24;100.00
76592;BME280;65481;47.600;19.682;2024-02-15T05:46:54;101014.50;;;4.30;100.00
76592;BME280;65481;47.600;19.682;2024-02-15T05:51:55;101027.72;;;4.36;100.00
76592;BME280;65481;47.600;19.682;2024-02-15T05:56:55;101028.53;;;4.45;100.00
76592;BME280;65481;47.600;19.682;2024-02-15T06:01:58;101024.44;;;4.51;100.00
76592;BME280;65481;47.600;19.682;2024-02-15T06:06:59;101031.75;;;4.55;100.00
76592;BME280;65481;47.600;19.682;2024-02-15T06:12:01;101042.03;;;4.57;100.00
76592;BME280;65481;47.600;19.682;2024-02-15T06:17:01;101038.47;;;4.50;100.00
76592;BME280;65481;47.600;19.682;2024-02-15T06:22:02;101043.84;;;4.57;100.00
76592;BME280;65481;47.600;19.682;2024-02-15T06:27:05;101064.44;;;4.51;100.00
76592;BME280;65481;47.600;19.682;2024-02-15T06:32:06;101064.94;;;4.55;100.00
76592;BME280;65481;47.600;19.682;2024-02-15T06:37:38;101075.34;;;4.63;100.00
76592;BME280;65481;47.600;19.682;2024-02-15T06:42:57;101060.31;;;4.65;100.00
76592;BME280;65481;47.600;19.682;2024-02-15T06:47:57;101085.16;;;4.69;100.00
76592;BME280;65481;47.600;19.682;2024-02-15T06:52:58;101072.06;;;4.69;100.00
76592;BME280;65481;47.600;19.682;2024-02-15T06:57:59;101086.78;;;4.70;100.00
76592;BME280;65481;47.600;19.682;2024-02-15T07:02:59;101096.41;;;4.78;100.00
76592;BME280;65481;47.600;19.682;2024-02-15T07:08:01;101095.56;;;4.78;100.00
76592;BME280;65481;47.600;19.682;2024-02-15T07:13:01;101096.91;;;4.57;100.00
76592;BME280;65481;47.600;19.682;2024-02-15T07:18:05;101086.81;;;4.54;100.00
76592;BME280;65481;47.600;19.682;2024-02-15T07:23:08;101094.47;;;4.64;100.00
76592;BME280;65481;47.600;19.682;2024-02-15T07:28:09;101093.50;;;4.65;100.00
76592;BME280;65481;47.600;19.682;2024-02-15T07:33:11;101088.41;;;4.72;100.00
76592;BME280;65481;47.600;19.682;2024-02-15T07:38:11;101102.75;;;4.76;100.00
76592;BME280;65481;47.600;19.682;2024-02-15T07:43:12;101096.25;;;4.72;100.00
76592;BME280;65481;47.600;19.682;2024-02-15T07:48:13;101106.22;;;4.68;100.00
76592;BME280;65481;47.600;19.682;2024-02-15T07:53:14;101099.16;;;4.77;100.00
76592;BME280;65481;47.600;19.682;2024-02-15T07:58:14;101110.28;;;4.87;100.00
76592;BME280;65481;47.600;19.682;2024-02-15T08:03:15;101111.06;;;4.96;100.00
76592;BME280;65481;47.600;19.682;2024-02-15T08:08:16;101119.03;;;5.03;100.00
76592;BME280;65481;47.600;19.682;2024-02-15T08:13:16;101105.66;;;4.97;100.00
76592;BME280;65481;47.600;19.682;2024-02-15T08:18:18;101111.97;;;5.20;100.00
76592;BME280;65481;47.600;19.682;2024-02-15T08:23:18;101116.34;;;5.19;100.00
76592;BME280;65481;47.600;19.682;2024-02-15T08:28:19;101112.88;;;5.27;100.00
76592;BME280;65481;47.600;19.682;2024-02-15T08:33:20;101113.31;;;5.39;100.00
76592;BME280;65481;47.600;19.682;2024-02-15T08:38:24;101106.28;;;5.39;100.00
76592;BME280;65481;47.600;19.682;2024-02-15T08:43:25;101101.66;;;5.50;100.00
76592;BME280;65481;47.600;19.682;2024-02-15T08:48:25;101102.34;;;5.43;100.00
76592;BME280;65481;47.600;19.682;2024-02-15T08:53:26;101112.72;;;5.60;100.00
76592;BME280;65481;47.600;19.682;2024-02-15T08:58:27;101102.13;;;5.53;100.00
76592;BME280;65481;47.600;19.682;2024-02-15T09:03:27;101108.78;;;5.64;100.00
76592;BME280;65481;47.600;19.682;2024-02-15T09:08:28;101118.84;;;5.75;100.00
76592;BME280;65481;47.600;19.682;2024-02-15T09:13:30;101117.38;;;5.73;100.00
76592;BME280;65481;47.600;19.682;2024-02-15T09:18:32;101120.25;;;5.86;100.00
76592;BME280;65481;47.600;19.682;2024-02-15T09:23:33;101130.84;;;5.93;100.00
76592;BME280;65481;47.600;19.682;2024-02-15T09:28:34;101130.16;;;5.99;100.00
76592;BME280;65481;47.600;19.682;2024-02-15T09:33:34;101119.75;;;6.14;100.00
76592;BME280;65481;47.600;19.682;2024-02-15T09:38:35;101126.94;;;6.35;100.00
76592;BME280;65481;47.600;19.682;2024-02-15T09:43:36;101120.50;;;6.23;100.00
76592;BME280;65481;47.600;19.682;2024-02-15T09:48:36;101119.63;;;6.31;100.00
76592;BME280;65481;47.600;19.682;2024-02-15T09:53:40;101118.72;;;6.39;100.00
76592;BME280;65481;47.600;19.682;2024-02-15T09:58:42;101112.94;;;6.43;100.00
76592;BME280;65481;47.600;19.682;2024-02-15T10:03:43;101099.84;;;6.43;100.00
76592;BME280;65481;47.600;19.682;2024-02-15T10:08:44;101110.50;;;6.42;100.00
76592;BME280;65481;47.600;19.682;2024-02-15T10:13:47;101114.56;;;6.44;100.00
76592;BME280;65481;47.600;19.682;2024-02-15T10:18:48;101115.94;;;6.55;100.00
76592;BME280;65481;47.600;19.682;2024-02-15T10:24:02;101117.88;;;6.61;100.00
76592;BME280;65481;47.600;19.682;2024-02-15T10:29:06;101112.72;;;6.68;100.00
76592;BME280;65481;47.600;19.682;2024-02-15T10:34:13;101111.81;;;6.76;100.00
76592;BME280;65481;47.600;19.682;2024-02-15T10:39:16;101106.00;;;6.80;100.00
76592;BME280;65481;47.600;19.682;2024-02-15T10:44:21;101107.09;;;6.86;100.00
76592;BME280;65481;47.600;19.682;2024-02-15T10:49:24;101112.91;;;7.11;100.00
76592;BME280;65481;47.600;19.682;2024-02-15T10:54:40;101107.88;;;7.17;100.00
76592;BME280;65481;47.600;19.682;2024-02-15T10:59:58;101096.59;;;7.16;100.00
76592;BME280;65481;47.600;19.682;2024-02-15T11:05:05;101085.81;;;7.26;100.00
76592;BME280;65481;47.600;19.682;2024-02-15T11:10:09;101097.41;;;7.53;100.00
76592;BME280;65481;47.600;19.682;2024-02-15T11:15:10;101090.03;;;7.64;100.00
76592;BME280;65481;47.600;19.682;2024-02-15T11:25:38;101083.09;;;7.78;99.15
76592;BME280;65481;47.600;19.682;2024-02-15T11:30:39;101079.25;;;8.02;98.13
76592;BME280;65481;47.600;19.682;2024-02-15T11:36:09;101078.38;;;8.16;96.83
76592;BME280;65481;47.600;19.682;2024-02-15T11:41:18;101071.53;;;8.22;94.86
76592;BME280;65481;47.600;19.682;2024-02-15T11:46:19;101065.88;;;8.25;93.99
76592;BME280;65481;47.600;19.682;2024-02-15T11:51:33;101070.13;;;8.48;93.40
76592;BME280;65481;47.600;19.682;2024-02-15T11:56:55;101075.44;;;8.61;92.39
76592;BME280;65481;47.600;19.682;2024-02-15T12:02:10;101072.66;;;8.63;91.89
76592;BME280;65481;47.600;19.682;2024-02-15T12:07:30;101068.63;;;8.67;91.70
76592;BME280;65481;47.600;19.682;2024-02-15T12:12:53;101059.97;;;8.80;90.88
76592;BME280;65481;47.600;19.682;2024-02-15T12:18:14;101052.06;;;8.80;90.36
76592;BME280;65481;47.600;19.682;2024-02-15T12:23:33;101048.25;;;8.83;90.29
76592;BME280;65481;47.600;19.682;2024-02-15T12:28:34;101060.03;;;8.93;90.58
76592;BME280;65481;47.600;19.682;2024-02-15T12:33:35;101049.69;;;8.92;89.59
76592;BME280;65481;47.600;19.682;2024-02-15T12:38:36;101041.81;;;8.99;89.69
76592;BME280;65481;47.600;19.682;2024-02-15T12:43:37;101043.72;;;9.18;89.13
76592;BME280;65481;47.600;19.682;2024-02-15T12:48:38;101042.09;;;9.24;88.93
76592;BME280;65481;47.600;19.682;2024-02-15T12:53:41;101036.69;;;9.39;88.53
76592;BME280;65481;47.600;19.682;2024-02-15T12:58:42;101034.88;;;9.46;88.11
76592;BME280;65481;47.600;19.682;2024-02-15T13:03:43;101028.59;;;9.61;87.71
76592;BME280;65481;47.600;19.682;2024-02-15T13:08:45;101027.38;;;9.70;87.54
76592;BME280;65481;47.600;19.682;2024-02-15T13:13:48;101022.72;;;9.59;86.89
76592;BME280;65481;47.600;19.682;2024-02-15T13:18:49;101021.94;;;9.65;86.43
76592;BME280;65481;47.600;19.682;2024-02-15T13:23:49;101013.41;;;9.69;85.74
76592;BME280;65481;47.600;19.682;2024-02-15T13:28:50;101002.84;;;9.90;85.14
76592;BME280;65481;47.600;19.682;2024-02-15T13:33:50;101000.41;;;10.02;84.52
76592;BME280;65481;47.600;19.682;2024-02-15T13:38:51;100997.59;;;10.03;84.23
76592;BME280;65481;47.600;19.682;2024-02-15T13:43:51;101000.81;;;9.92;84.14
76592;BME280;65481;47.600;19.682;2024-02-15T13:48:52;100999.22;;;9.84;83.71
76592;BME280;65481;47.600;19.682;2024-02-15T13:53:52;100997.97;;;9.87;83.65
76592;BME280;65481;47.600;19.682;2024-02-15T13:58:53;101000.84;;;9.85;83.83
76592;BME280;65481;47.600;19.682;2024-02-15T14:03:53;100999.44;;;9.76;84.95
76592;BME280;65481;47.600;19.682;2024-02-15T14:08:54;101003.66;;;9.70;85.49
76592;BME280;65481;47.600;19.682;2024-02-15T14:13:55;100996.38;;;9.65;85.49
76592;BME280;65481;47.600;19.682;2024-02-15T14:18:58;100995.97;;;9.82;85.67
76592;BME280;65481;47.600;19.682;2024-02-15T14:23:59;101003.88;;;9.89;85.96
76592;BME280;65481;47.600;19.682;2024-02-15T14:29:00;100990.69;;;9.95;86.16
76592;BME280;65481;47.600;19.682;2024-02-15T14:34:03;100998.81;;;9.87;86.35
76592;BME280;65481;47.600;19.682;2024-02-15T14:39:04;100997.56;;;9.96;86.33
76592;BME280;65481;47.600;19.682;2024-02-15T14:44:05;100990.69;;;9.82;87.24
76592;BME280;65481;47.600;19.682;2024-02-15T14:49:05;100990.50;;;9.77;87.61
76592;BME280;65481;47.600;19.682;2024-02-15T14:54:06;100986.63;;;9.59;88.49
76592;BME280;65481;47.600;19.682;2024-02-15T14:59:07;100977.94;;;9.45;89.49
76592;BME280;65481;47.600;19.682;2024-02-15T15:04:07;100980.75;;;9.37;89.76
76592;BME280;65481;47.600;19.682;2024-02-15T15:09:10;100986.63;;;9.32;90.51
76592;BME280;65481;47.600;19.682;2024-02-15T15:14:29;100984.97;;;9.11;91.97
76592;BME280;65481;47.600;19.682;2024-02-15T15:19:30;100987.56;;;9.04;92.66
76592;BME280;65481;47.600;19.682;2024-02-15T15:24:31;100989.81;;;9.07;93.00
76592;BME280;65481;47.600;19.682;2024-02-15T15:29:34;100985.97;;;9.03;93.65
76592;BME280;65481;47.600;19.682;2024-02-15T15:34:37;100979.25;;;8.94;94.63
76592;BME280;65481;47.600;19.682;2024-02-15T15:39:37;100978.00;;;8.83;95.06
76592;BME280;65481;47.600;19.682;2024-02-15T15:44:38;100969.94;;;8.85;95.47
76592;BME280;65481;47.600;19.682;2024-02-15T15:49:39;100968.06;;;8.72;96.68
76592;BME280;65481;47.600;19.682;2024-02-15T15:54:40;100968.84;;;8.66;97.29
76592;BME280;65481;47.600;19.682;2024-02-15T15:59:41;100985.63;;;8.64;97.52
76592;BME280;65481;47.600;19.682;2024-02-15T16:04:45;100987.47;;;8.71;97.37
76592;BME280;65481;47.600;19.682;2024-02-15T16:09:46;100989.50;;;8.69;97.78
76592;BME280;65481;47.600;19.682;2024-02-15T16:14:49;100991.88;;;8.63;98.38
76592;BME280;65481;47.600;19.682;2024-02-15T16:19:50;100976.69;;;8.59;98.83
76592;BME280;65481;47.600;19.682;2024-02-15T16:24:50;100987.00;;;8.60;99.15
76592;BME280;65481;47.600;19.682;2024-02-15T16:29:51;100985.19;;;8.54;99.86
76592;BME280;65481;47.600;19.682;2024-02-15T16:34:51;100992.97;;;8.41;100.00
76592;BME280;65481;47.600;19.682;2024-02-15T16:39:52;101000.84;;;8.41;100.00
76592;BME280;65481;47.600;19.682;2024-02-15T16:44:53;101004.50;;;8.40;100.00
76592;BME280;65481;47.600;19.682;2024-02-15T16:49:53;101001.81;;;8.33;100.00
76592;BME280;65481;47.600;19.682;2024-02-15T16:54:54;101011.50;;;8.26;100.00
76592;BME280;65481;47.600;19.682;2024-02-15T16:59:54;101010.13;;;8.30;100.00
76592;BME280;65481;47.600;19.682;2024-02-15T17:04:55;101018.41;;;8.33;100.00
76592;BME280;65481;47.600;19.682;2024-02-15T17:09:56;101029.53;;;8.29;100.00
76592;BME280;65481;47.600;19.682;2024-02-15T17:14:57;101032.28;;;8.21;100.00
76592;BME280;65481;47.600;19.682;2024-02-15T17:19:57;101032.72;;;8.24;100.00
76592;BME280;65481;47.600;19.682;2024-02-15T17:24:58;101031.09;;;8.23;100.00
76592;BME280;65481;47.600;19.682;2024-02-15T17:29:58;101034.91;;;8.21;100.00
76592;BME280;65481;47.600;19.682;2024-02-15T17:35:00;101030.38;;;8.08;100.00
76592;BME280;65481;47.600;19.682;2024-02-15T17:40:01;101034.75;;;7.94;100.00
76592;BME280;65481;47.600;19.682;2024-02-15T17:45:02;101040.41;;;7.97;100.00
76592;BME280;65481;47.600;19.682;2024-02-15T17:50:02;101040.00;;;7.94;100.00
76592;BME280;65481;47.600;19.682;2024-02-15T17:55:04;101046.63;;;7.90;100.00
76592;BME280;65481;47.600;19.682;2024-02-15T18:00:08;101045.00;;;7.88;100.00
76592;BME280;65481;47.600;19.682;2024-02-15T18:05:19;101047.06;;;7.93;100.00
76592;BME280;65481;47.600;19.682;2024-02-15T18:10:20;101045.84;;;7.96;100.00
76592;BME280;65481;47.600;19.682;2024-02-15T18:15:21;101058.38;;;7.94;100.00
76592;BME280;65481;47.600;19.682;2024-02-15T18:20:25;101051.63;;;7.84;100.00
76592;BME280;65481;47.600;19.682;2024-02-15T18:25:26;101052.81;;;7.82;100.00
76592;BME280;65481;47.600;19.682;2024-02-15T18:30:26;101043.38;;;7.87;100.00
76592;BME280;65481;47.600;19.682;2024-02-15T18:35:33;101049.38;;;7.81;100.00
76592;BME280;65481;47.600;19.682;2024-02-15T18:40:36;101047.75;;;7.80;100.00
76592;BME280;65481;47.600;19.682;2024-02-15T18:45:37;101049.63;;;7.86;100.00
76592;BME280;65481;47.600;19.682;2024-02-15T18:50:43;101052.63;;;7.83;100.00
76592;BME280;65481;47.600;19.682;2024-02-15T18:55:44;101042.75;;;7.85;100.00
76592;BME280;65481;47.600;19.682;2024-02-15T19:00:45;101049.44;;;7.88;100.00
76592;BME280;65481;47.600;19.682;2024-02-15T19:05:46;101042.53;;;7.87;100.00
76592;BME280;65481;47.600;19.682;2024-02-15T19:10:47;101045.31;;;7.79;100.00
76592;BME280;65481;47.600;19.682;2024-02-15T19:15:48;101042.06;;;7.77;100.00
76592;BME280;65481;47.600;19.682;2024-02-15T19:20:55;101040.88;;;7.79;100.00
76592;BME280;65481;47.600;19.682;2024-02-15T19:25:55;101033.13;;;7.71;100.00
76592;BME280;65481;47.600;19.682;2024-02-15T19:30:56;101039.94;;;7.65;100.00
76592;BME280;65481;47.600;19.682;2024-02-15T19:35:58;101036.50;;;7.65;100.00
76592;BME280;65481;47.600;19.682;2024-02-15T19:40:59;101027.25;;;7.47;100.00
76592;BME280;65481;47.600;19.682;2024-02-15T19:45:59;101033.00;;;7.36;100.00
76592;BME280;65481;47.600;19.682;2024-02-15T19:51:01;101038.94;;;7.45;100.00
76592;BME280;65481;47.600;19.682;2024-02-15T19:56:02;101042.69;;;7.57;100.00
76592;BME280;65481;47.600;19.682;2024-02-15T20:01:03;101036.75;;;7.48;100.00
76592;BME280;65481;47.600;19.682;2024-02-15T20:06:04;101039.31;;;7.41;100.00
76592;BME280;65481;47.600;19.682;2024-02-15T20:11:05;101055.13;;;7.48;100.00
76592;BME280;65481;47.600;19.682;2024-02-15T20:16:06;101046.25;;;7.49;100.00
76592;BME280;65481;47.600;19.682;2024-02-15T20:21:07;101044.44;;;7.50;100.00
76592;BME280;65481;47.600;19.682;2024-02-15T20:26:10;101049.50;;;7.51;100.00
76592;BME280;65481;47.600;19.682;2024-02-15T20:31:11;101053.75;;;7.52;100.00
76592;BME280;65481;47.600;19.682;2024-02-15T20:36:12;101049.09;;;7.48;100.00
76592;BME280;65481;47.600;19.682;2024-02-15T20:41:12;101054.63;;;7.38;100.00
76592;BME280;65481;47.600;19.682;2024-02-15T20:46:27;101057.50;;;7.43;100.00
76592;BME280;65481;47.600;19.682;2024-02-15T20:51:29;101056.13;;;7.47;100.00
76592;BME280;65481;47.600;19.682;2024-02-15T20:56:30;101056.97;;;7.48;100.00
76592;BME280;65481;47.600;19.682;2024-02-15T21:01:30;101069.19;;;7.40;100.00
76592;BME280;65481;47.600;19.682;2024-02-15T21:06:31;101064.50;;;7.36;100.00
76592;BME280;65481;47.600;19.682;2024-02-15T21:11:37;101070.56;;;7.36;100.00
76592;BME280;65481;47.600;19.682;2024-02-15T21:16:37;101066.31;;;7.35;100.00
76592;BME280;65481;47.600;19.682;2024-02-15T21:21:42;101059.78;;;7.31;100.00
76592;BME280;65481;47.600;19.682;2024-02-15T21:26:43;101050.38;;;7.37;100.00
76592;BME280;65481;47.600;19.682;2024-02-15T21:31:44;101044.88;;;7.32;100.00
76592;BME280;65481;47.600;19.682;2024-02-15T21:36:46;101040.41;;;7.32;100.00
76592;BME280;65481;47.600;19.682;2024-02-15T21:41:47;101037.50;;;7.20;100.00
76592;BME280;65481;47.600;19.682;2024-02-15T21:46:48;101037.38;;;7.13;100.00
76592;BME280;65481;47.600;19.682;2024-02-15T21:51:48;101037.84;;;7.17;100.00
76592;BME280;65481;47.600;19.682;2024-02-15T21:56:49;101037.94;;;7.09;100.00
76592;BME280;65481;47.600;19.682;2024-02-15T22:01:50;101041.50;;;7.01;100.00
76592;BME280;65481;47.600;19.682;2024-02-15T22:06:52;101049.44;;;7.08;100.00
76592;BME280;65481;47.600;19.682;2024-02-15T22:11:54;101047.56;;;7.02;100.00
76592;BME280;65481;47.600;19.682;2024-02-15T22:16:55;101047.31;;;6.96;100.00
76592;BME280;65481;47.600;19.682;2024-02-15T22:21:55;101049.38;;;7.01;100.00
76592;BME280;65481;47.600;19.682;2024-02-15T22:26:56;101054.19;;;6.97;100.00
76592;BME280;65481;47.600;19.682;2024-02-15T22:32:00;101042.97;;;6.89;100.00
76592;BME280;65481;47.600;19.682;2024-02-15T22:37:02;101054.03;;;6.84;100.00
76592;BME280;65481;47.600;19.682;2024-02-15T22:42:03;101061.25;;;6.82;100.00
76592;BME280;65481;47.600;19.682;2024-02-15T22:47:04;101052.38;;;6.83;100.00
76592;BME280;65481;47.600;19.682;2024-02-15T22:52:04;101061.63;;;6.79;100.00
76592;BME280;65481;47.600;19.682;2024-02-15T22:57:05;101067.41;;;6.74;100.00
76592;BME280;65481;47.600;19.682;2024-02-15T23:02:06;101057.44;;;6.70;100.00
76592;BME280;65481;47.600;19.682;2024-02-15T23:07:06;101054.38;;;6.51;100.00
76592;BME280;65481;47.600;19.682;2024-02-15T23:12:10;101057.88;;;6.43;100.00
76592;BME280;65481;47.600;19.682;2024-02-15T23:17:10;101054.88;;;6.31;100.00
76592;BME280;65481;47.600;19.682;2024-02-15T23:22:10;101061.03;;;6.24;100.00
76592;BME280;65481;47.600;19.682;2024-02-15T23:27:13;101056.03;;;6.14;100.00
76592;BME280;65481;47.600;19.682;2024-02-15T23:32:14;101054.13;;;6.08;100.00
76592;BME280;65481;47.600;19.682;2024-02-15T23:37:15;101052.22;;;6.01;100.00
76592;BME280;65481;47.600;19.682;2024-02-15T23:42:35;101049.47;;;5.95;100.00
76592;BME280;65481;47.600;19.682;2024-02-15T23:47:35;101051.16;;;5.87;100.00
76592;BME280;65481;47.600;19.682;2024-02-15T23:52:37;101059.34;;;5.84;100.00
76592;BME280;65481;47.600;19.682;2024-02-15T23:57:41;101067.41;;;5.83;100.00
